sensor_id;sensor_type;location;lat;lon;timestamp;P1;durP1;ratioP1;P2;durP2;ratioP2
38085;SDS011;23896;50.678;10.924;2022-10-16T17:24:03;3.83;;;1.15;;
38085;SDS011;23896;50.678;10.924;2022-10-16T17:26:30;2.13;;;1.30;;
38085;SDS011;23896;50.678;10.924;2022-10-16T17:28:59;1.77;;;0.90;;
38085;SDS011;23896;50.678;10.924;2022-10-16T17:31:33;1.85;;;1.13;;
38085;SDS011;23896;50.678;10.924;2022-10-16T17:34:03;1.30;;;1.20;;
38085;SDS011;23896;50.678;10.924;2022-10-16T17:36:32;1.33;;;1.20;;
38085;SDS011;23896;50.678;10.924;2022-10-16T17:39:07;2.90;;;1.20;;
38085;SDS011;23896;50.678;10.924;2022-10-16T17:41:35;1.23;;;1.13;;
38085;SDS011;23896;50.678;10.924;2022-10-16T17:44:05;1.23;;;1.13;;
38085;SDS011;23896;50.678;10.924;2022-10-16T17:46:32;1.35;;;1.27;;
38085;SDS011;23896;50.678;10.924;2022-10-16T17:48:58;1.92;;;1.20;;
38085;SDS011;23896;50.678;10.924;2022-10-16T17:51:29;2.55;;;1.40;;
38085;SDS011;23896;50.678;10.924;2022-10-16T17:53:59;3.25;;;1.80;;
38085;SDS011;23896;50.678;10.924;2022-10-16T17:56:26;3.92;;;1.60;;
38085;SDS011;23896;50.678;10.924;2022-10-16T17:58:55;6.38;;;1.50;;
38085;SDS011;23896;50.678;10.924;2022-10-16T18:01:36;1.92;;;1.50;;
38085;SDS011;23896;50.678;10.924;2022-10-16T18:04:09;3.17;;;1.73;;
38085;SDS011;23896;50.678;10.924;2022-10-16T18:06:40;6.88;;;1.60;;
38085;SDS011;23896;50.678;10.924;2022-10-16T18:09:12;2.60;;;1.33;;
38085;SDS011;23896;50.678;10.924;2022-10-16T18:11:40;4.13;;;1.50;;
38085;SDS011;23896;50.678;10.924;2022-10-16T18:14:10;1.60;;;1.35;;
38085;SDS011;23896;50.678;10.924;2022-10-16T18:16:37;1.95;;;1.55;;
38085;SDS011;23896;50.678;10.924;2022-10-16T18:19:05;1.60;;;1.50;;
38085;SDS011;23896;50.678;10.924;2022-10-16T18:21:34;1.70;;;1.60;;
38085;SDS011;23896;50.678;10.924;2022-10-16T18:24:01;1.88;;;1.40;;
38085;SDS011;23896;50.678;10.924;2022-10-16T18:26:28;2.20;;;1.58;;
38085;SDS011;23896;50.678;10.924;2022-10-16T18:28:55;3.40;;;1.95;;
38085;SDS011;23896;50.678;10.924;2022-10-16T18:31:24;1.58;;;1.48;;
38085;SDS011;23896;50.678;10.924;2022-10-16T18:33:50;2.95;;;1.92;;
38085;SDS011;23896;50.678;10.924;2022-10-16T18:36:25;2.20;;;1.70;;
38085;SDS011;23896;50.678;10.924;2022-10-16T18:39:06;3.67;;;1.63;;
38085;SDS011;23896;50.678;10.924;2022-10-16T18:41:34;1.80;;;1.70;;
38085;SDS011;23896;50.678;10.924;2022-10-16T18:44:03;1.65;;;1.40;;
38085;SDS011;23896;50.678;10.924;2022-10-16T18:46:30;1.17;;;1.08;;
38085;SDS011;23896;50.678;10.924;2022-10-16T18:48:56;7.03;;;1.45;;
38085;SDS011;23896;50.678;10.924;2022-10-16T18:51:31;1.83;;;1.38;;
38085;SDS011;23896;50.678;10.924;2022-10-16T18:53:59;2.22;;;1.33;;
38085;SDS011;23896;50.678;10.924;2022-10-16T18:56:26;2.85;;;1.48;;
38085;SDS011;23896;50.678;10.924;2022-10-16T18:58:53;1.83;;;1.48;;
38085;SDS011;23896;50.678;10.924;2022-10-16T19:01:23;4.35;;;1.58;;
38085;SDS011;23896;50.678;10.924;2022-10-16T19:03:56;4.30;;;1.80;;
38085;SDS011;23896;50.678;10.924;2022-10-16T19:06:23;5.40;;;1.83;;
38085;SDS011;23896;50.678;10.924;2022-10-16T19:08:52;1.48;;;1.30;;
38085;SDS011;23896;50.678;10.924;2022-10-16T19:11:19;1.77;;;1.35;;
38085;SDS011;23896;50.678;10.924;2022-10-16T19:13:47;4.40;;;1.35;;
38085;SDS011;23896;50.678;10.924;2022-10-16T19:16:20;1.85;;;1.70;;
38085;SDS011;23896;50.678;10.924;2022-10-16T19:18:51;2.70;;;1.55;;
38085;SDS011;23896;50.678;10.924;2022-10-16T19:21:18;1.50;;;1.40;;
38085;SDS011;23896;50.678;10.924;2022-10-16T19:23:45;4.28;;;1.50;;
38085;SDS011;23896;50.678;10.924;2022-10-16T19:26:13;1.75;;;1.65;;
38085;SDS011;23896;50.678;10.924;2022-10-16T19:28:43;1.67;;;1.42;;
38085;SDS011;23896;50.678;10.924;2022-10-16T19:31:19;2.30;;;1.20;;
38085;SDS011;23896;50.678;10.924;2022-10-16T19:33:49;4.22;;;1.30;;
38085;SDS011;23896;50.678;10.924;2022-10-16T19:36:20;1.63;;;1.52;;
38085;SDS011;23896;50.678;10.924;2022-10-16T19:38:57;3.53;;;2.28;;
38085;SDS011;23896;50.678;10.924;2022-10-16T19:41:28;1.85;;;1.65;;
38085;SDS011;23896;50.678;10.924;2022-10-16T19:43:55;2.17;;;1.70;;
38085;SDS011;23896;50.678;10.924;2022-10-16T19:46:25;5.18;;;1.60;;
38085;SDS011;23896;50.678;10.924;2022-10-16T19:48:55;6.15;;;2.13;;
38085;SDS011;23896;50.678;10.924;2022-10-16T19:51:22;2.17;;;1.98;;
38085;SDS011;23896;50.678;10.924;2022-10-16T19:53:52;7.05;;;2.22;;
38085;SDS011;23896;50.678;10.924;2022-10-16T19:56:20;5.18;;;1.75;;
38085;SDS011;23896;50.678;10.924;2022-10-16T19:58:47;2.53;;;1.80;;
38085;SDS011;23896;50.678;10.924;2022-10-16T20:01:14;2.75;;;2.08;;
38085;SDS011;23896;50.678;10.924;2022-10-16T20:03:44;7.20;;;1.83;;
38085;SDS011;23896;50.678;10.924;2022-10-16T20:06:11;3.92;;;1.90;;
38085;SDS011;23896;50.678;10.924;2022-10-16T20:08:39;5.15;;;1.83;;
38085;SDS011;23896;50.678;10.924;2022-10-16T20:11:08;2.15;;;1.77;;
38085;SDS011;23896;50.678;10.924;2022-10-16T20:13:35;3.70;;;1.80;;
38085;SDS011;23896;50.678;10.924;2022-10-16T20:16:08;3.72;;;2.13;;
38085;SDS011;23896;50.678;10.924;2022-10-16T20:18:35;2.35;;;1.88;;
38085;SDS011;23896;50.678;10.924;2022-10-16T20:21:07;1.88;;;1.77;;
38085;SDS011;23896;50.678;10.924;2022-10-16T20:23:37;2.75;;;1.63;;
38085;SDS011;23896;50.678;10.924;2022-10-16T20:26:04;2.72;;;1.60;;
38085;SDS011;23896;50.678;10.924;2022-10-16T20:28:31;2.63;;;1.63;;
38085;SDS011;23896;50.678;10.924;2022-10-16T20:30:57;2.83;;;1.63;;
38085;SDS011;23896;50.678;10.924;2022-10-16T20:33:24;2.20;;;2.00;;
38085;SDS011;23896;50.678;10.924;2022-10-16T20:35:50;3.65;;;1.85;;
38085;SDS011;23896;50.678;10.924;2022-10-16T20:38:17;4.38;;;1.67;;
38085;SDS011;23896;50.678;10.924;2022-10-16T20:40:44;3.35;;;2.00;;
38085;SDS011;23896;50.678;10.924;2022-10-16T20:43:13;4.53;;;2.08;;
38085;SDS011;23896;50.678;10.924;2022-10-16T20:45:39;2.25;;;1.63;;
38085;SDS011;23896;50.678;10.924;2022-10-16T20:48:06;2.17;;;1.80;;
38085;SDS011;23896;50.678;10.924;2022-10-16T20:50:35;1.95;;;1.80;;
38085;SDS011;23896;50.678;10.924;2022-10-16T20:53:02;4.18;;;2.42;;
38085;SDS011;23896;50.678;10.924;2022-10-16T20:55:30;1.85;;;1.75;;
38085;SDS011;23896;50.678;10.924;2022-10-16T20:57:58;3.40;;;2.08;;
38085;SDS011;23896;50.678;10.924;2022-10-16T21:00:25;1.58;;;1.48;;
38085;SDS011;23896;50.678;10.924;2022-10-16T21:02:53;6.10;;;2.03;;
38085;SDS011;23896;50.678;10.924;2022-10-16T21:05:25;2.38;;;1.70;;
38085;SDS011;23896;50.678;10.924;2022-10-16T21:07:57;4.30;;;2.20;;
38085;SDS011;23896;50.678;10.924;2022-10-16T21:10:25;1.40;;;1.30;;
38085;SDS011;23896;50.678;10.924;2022-10-16T21:12:53;3.25;;;1.30;;
38085;SDS011;23896;50.678;10.924;2022-10-16T21:15:20;2.35;;;2.15;;
38085;SDS011;23896;50.678;10.924;2022-10-16T21:17:51;1.65;;;1.55;;
38085;SDS011;23896;50.678;10.924;2022-10-16T21:20:19;2.47;;;2.20;;
38085;SDS011;23896;50.678;10.924;2022-10-16T21:22:47;3.40;;;1.90;;
38085;SDS011;23896;50.678;10.924;2022-10-16T21:25:16;5.50;;;1.88;;
38085;SDS011;23896;50.678;10.924;2022-10-16T21:27:44;2.20;;;2.00;;
38085;SDS011;23896;50.678;10.924;2022-10-16T21:30:12;11.55;;;2.00;;
38085;SDS011;23896;50.678;10.924;2022-10-16T21:32:39;4.95;;;2.10;;
38085;SDS011;23896;50.678;10.924;2022-10-16T21:35:11;2.17;;;1.95;;
38085;SDS011;23896;50.678;10.924;2022-10-16T21:37:41;2.85;;;2.00;;
38085;SDS011;23896;50.678;10.924;2022-10-16T21:40:08;2.53;;;1.83;;
38085;SDS011;23896;50.678;10.924;2022-10-16T21:42:36;2.40;;;1.98;;
38085;SDS011;23896;50.678;10.924;2022-10-16T21:45:04;5.25;;;1.73;;
38085;SDS011;23896;50.678;10.924;2022-10-16T21:47:32;2.20;;;1.50;;
38085;SDS011;23896;50.678;10.924;2022-10-16T21:49:59;6.30;;;1.70;;
38085;SDS011;23896;50.678;10.924;2022-10-16T21:52:26;5.05;;;2.05;;
38085;SDS011;23896;50.678;10.924;2022-10-16T21:54:52;1.95;;;1.77;;
38085;SDS011;23896;50.678;10.924;2022-10-16T21:57:18;6.40;;;1.55;;
38085;SDS011;23896;50.678;10.924;2022-10-16T21:59:45;1.90;;;1.70;;
38085;SDS011;23896;50.678;10.924;2022-10-16T22:02:11;2.63;;;1.80;;
38085;SDS011;23896;50.678;10.924;2022-10-16T22:04:38;1.50;;;1.40;;
38085;SDS011;23896;50.678;10.924;2022-10-16T22:07:04;4.97;;;1.65;;
38085;SDS011;23896;50.678;10.924;2022-10-16T22:09:31;4.25;;;1.48;;
38085;SDS011;23896;50.678;10.924;2022-10-16T22:11:57;1.48;;;1.38;;
38085;SDS011;23896;50.678;10.924;2022-10-16T22:14:24;1.67;;;1.58;;
38085;SDS011;23896;50.678;10.924;2022-10-16T22:16:50;2.30;;;1.38;;
38085;SDS011;23896;50.678;10.924;2022-10-16T22:19:19;1.60;;;1.50;;
38085;SDS011;23896;50.678;10.924;2022-10-16T22:21:47;2.42;;;1.30;;
38085;SDS011;23896;50.678;10.924;2022-10-16T22:24:15;2.58;;;1.50;;
38085;SDS011;23896;50.678;10.924;2022-10-16T22:26:42;1.25;;;1.15;;
38085;SDS011;23896;50.678;10.924;2022-10-16T22:29:12;3.03;;;1.20;;
38085;SDS011;23896;50.678;10.924;2022-10-16T22:31:39;4.60;;;1.52;;
38085;SDS011;23896;50.678;10.924;2022-10-16T22:34:10;2.83;;;1.50;;
38085;SDS011;23896;50.678;10.924;2022-10-16T22:36:37;3.00;;;1.33;;
38085;SDS011;23896;50.678;10.924;2022-10-16T22:39:03;1.73;;;1.30;;
38085;SDS011;23896;50.678;10.924;2022-10-16T22:41:30;1.52;;;1.17;;
38085;SDS011;23896;50.678;10.924;2022-10-16T22:43:57;0.95;;;0.95;;
38085;SDS011;23896;50.678;10.924;2022-10-16T22:46:27;1.40;;;1.20;;
38085;SDS011;23896;50.678;10.924;2022-10-16T22:48:54;2.13;;;1.10;;
38085;SDS011;23896;50.678;10.924;2022-10-16T22:51:21;1.63;;;1.00;;
38085;SDS011;23896;50.678;10.924;2022-10-16T22:53:48;1.17;;;1.17;;
38085;SDS011;23896;50.678;10.924;2022-10-16T22:56:15;0.98;;;0.98;;
38085;SDS011;23896;50.678;10.924;2022-10-16T22:58:42;2.80;;;1.17;;
38085;SDS011;23896;50.678;10.924;2022-10-16T23:01:10;1.30;;;1.20;;
38085;SDS011;23896;50.678;10.924;2022-10-16T23:03:37;1.52;;;0.90;;
38085;SDS011;23896;50.678;10.924;2022-10-16T23:06:03;1.33;;;1.10;;
38085;SDS011;23896;50.678;10.924;2022-10-16T23:08:30;2.03;;;1.00;;
38085;SDS011;23896;50.678;10.924;2022-10-16T23:10:56;1.15;;;0.98;;
38085;SDS011;23896;50.678;10.924;2022-10-16T23:13:26;3.40;;;1.00;;
38085;SDS011;23896;50.678;10.924;2022-10-16T23:15:53;5.50;;;1.20;;
38085;SDS011;23896;50.678;10.924;2022-10-16T23:18:19;2.80;;;1.33;;
38085;SDS011;23896;50.678;10.924;2022-10-16T23:20:46;1.63;;;1.50;;
38085;SDS011;23896;50.678;10.924;2022-10-16T23:23:12;1.77;;;1.15;;
38085;SDS011;23896;50.678;10.924;2022-10-16T23:25:43;1.23;;;1.13;;
38085;SDS011;23896;50.678;10.924;2022-10-16T23:28:10;2.72;;;1.15;;
38085;SDS011;23896;50.678;10.924;2022-10-16T23:30:37;2.20;;;1.17;;
38085;SDS011;23896;50.678;10.924;2022-10-16T23:33:03;0.90;;;0.90;;
38085;SDS011;23896;50.678;10.924;2022-10-16T23:35:30;2.25;;;1.20;;
38085;SDS011;23896;50.678;10.924;2022-10-16T23:37:56;1.35;;;0.98;;
38085;SDS011;23896;50.678;10.924;2022-10-16T23:40:23;1.83;;;1.08;;
38085;SDS011;23896;50.678;10.924;2022-10-16T23:42:49;2.28;;;0.90;;
38085;SDS011;23896;50.678;10.924;2022-10-16T23:45:19;1.10;;;1.00;;
38085;SDS011;23896;50.678;10.924;2022-10-16T23:47:45;1.65;;;0.90;;
38085;SDS011;23896;50.678;10.924;2022-10-16T23:50:11;1.20;;;1.08;;
38085;SDS011;23896;50.678;10.924;2022-10-16T23:52:38;1.60;;;1.50;;
38085;SDS011;23896;50.678;10.924;2022-10-16T23:55:04;1.30;;;1.20;;
38085;SDS011;23896;50.678;10.924;2022-10-16T23:57:31;3.25;;;1.05;;
38085;SDS011;23896;50.678;10.924;2022-10-16T23:59:57;2.22;;;1.20;;
